Main page
METAR-TAF:

METAR-TAF

Airports :

Sari, Iran

Dasht-e Naz Airport

latitude: 36-38-09N, longitude: 53-11-37E, elevation: 11 m

Current weather observation

The report was made 16 minutes ago, at 17:00 UTC
Wind 6 kt from the Northeast
Temperature 25°C
Humidity 83%
Pressure 1016 hPa
Visibility 10 km or more
Scattered clouds at a height of 2700 ft, Cumulonimbus.
Broken clouds at a height of 8000 ft
thunderstorm

METAR: OINZ 261700Z 05006KT 9999 TS SCT027CB BKN080 25/22 Q1016

Time: 21:46 (17:16 UTC)


TAF: missing

Weather observations and forecasts of more than 4000 airports (METAR and TAF reports).

The available stations are represented by yellow and red dots on the map.

Hover mouse over dot to see the name of the station.

Then click to see weather observations and forecasts.

To change the map : click on the green buttons with a black cross to zoom in, on the green button with a dash to zoom out, or on the green arrows for adjacent maps.


METAR-TAF: